createdAt,value
2023-05-10T00:00:44.294Z,19.10
2023-05-10T00:03:14.104Z,19.10
2023-05-10T00:05:41.657Z,19.10
2023-05-10T00:08:09.134Z,19.10
2023-05-10T00:10:38.738Z,19.00
2023-05-10T00:13:08.551Z,19.00
2023-05-10T00:15:35.987Z,19.00
2023-05-10T00:18:06.545Z,19.00
2023-05-10T00:20:33.998Z,19.00
2023-05-10T00:23:01.650Z,19.00
2023-05-10T00:25:31.692Z,18.90
2023-05-10T00:28:04.802Z,18.90
2023-05-10T00:30:32.420Z,18.90
2023-05-10T00:33:02.369Z,18.80
2023-05-10T00:37:58.183Z,18.90
2023-05-10T00:40:25.658Z,18.90
2023-05-10T00:42:53.369Z,18.90
2023-05-10T00:45:20.689Z,18.80
2023-05-10T00:47:48.426Z,18.90
2023-05-10T00:50:16.776Z,18.90
2023-05-10T00:52:46.996Z,18.90
2023-05-10T00:55:21.131Z,18.90
2023-05-10T00:57:48.995Z,18.80
2023-05-10T01:00:19.919Z,18.90
2023-05-10T01:02:47.843Z,18.90
2023-05-10T01:05:17.814Z,18.80
2023-05-10T01:07:45.179Z,18.80
2023-05-10T01:10:15.213Z,18.80
2023-05-10T01:12:45.334Z,18.80
2023-05-10T01:15:15.934Z,18.80
2023-05-10T01:17:50.339Z,18.80
2023-05-10T01:20:18.460Z,18.80
2023-05-10T01:23:19.515Z,18.80
2023-05-10T01:26:17.888Z,18.80
2023-05-10T01:29:14.280Z,18.80
2023-05-10T01:32:17.120Z,18.70
2023-05-10T01:34:59.749Z,18.70
2023-05-10T01:37:43.025Z,18.80
2023-05-10T01:40:27.466Z,18.70
2023-05-10T01:43:02.021Z,18.70
2023-05-10T01:45:32.146Z,18.70
2023-05-10T01:48:11.014Z,18.70
2023-05-10T01:50:44.540Z,18.60
2023-05-10T01:53:13.932Z,18.60
2023-05-10T01:55:47.465Z,18.60
2023-05-10T01:58:19.900Z,18.60
2023-05-10T02:00:50.593Z,18.60
2023-05-10T02:03:21.532Z,18.50
2023-05-10T02:05:51.610Z,18.50
2023-05-10T02:08:21.986Z,18.50
2023-05-10T02:10:52.760Z,18.50
2023-05-10T02:13:20.546Z,18.50
2023-05-10T02:15:55.302Z,18.50
2023-05-10T02:18:24.917Z,18.40
2023-05-10T02:20:57.844Z,18.40
2023-05-10T02:23:26.029Z,18.40
2023-05-10T02:25:55.742Z,18.40
2023-05-10T02:28:24.749Z,18.40
2023-05-10T02:30:53.227Z,18.40
2023-05-10T02:33:22.621Z,18.40
2023-05-10T02:35:51.936Z,18.40
2023-05-10T02:38:22.542Z,18.30
2023-05-10T02:40:50.263Z,18.30
2023-05-10T02:43:20.289Z,18.30
2023-05-10T02:45:51.969Z,18.30
2023-05-10T02:48:19.370Z,18.30
2023-05-10T02:50:52.270Z,18.30
2023-05-10T02:53:28.800Z,18.30
2023-05-10T02:56:02.524Z,18.30
2023-05-10T02:58:29.973Z,18.20
2023-05-10T03:00:59.476Z,18.20
2023-05-10T03:03:27.133Z,18.20
2023-05-10T03:05:57.664Z,18.20
2023-05-10T03:08:25.255Z,18.20
2023-05-10T03:11:01.812Z,18.20
2023-05-10T03:13:33.714Z,18.20
2023-05-10T03:16:09.587Z,18.20
2023-05-10T03:19:03.036Z,18.20
2023-05-10T03:21:31.074Z,18.20
2023-05-10T03:24:08.684Z,18.20
2023-05-10T03:26:39.757Z,18.20
2023-05-10T03:29:08.613Z,18.20
2023-05-10T03:31:35.955Z,18.20
2023-05-10T03:34:05.493Z,18.10
2023-05-10T03:36:32.805Z,18.20
2023-05-10T03:39:03.360Z,18.10
2023-05-10T03:41:30.660Z,18.20
2023-05-10T03:43:57.888Z,18.10
2023-05-10T03:46:27.621Z,18.20
2023-05-10T03:48:57.305Z,18.20
2023-05-10T03:51:28.929Z,18.10
2023-05-10T03:53:56.588Z,18.20
2023-05-10T03:56:23.792Z,18.20
2023-05-10T03:58:51.101Z,18.20
2023-05-10T04:01:18.394Z,18.20
2023-05-10T04:03:45.980Z,18.20
2023-05-10T04:06:13.418Z,18.20
2023-05-10T04:08:43.543Z,18.20
2023-05-10T04:11:15.231Z,18.20
2023-05-10T04:13:44.029Z,18.20
2023-05-10T04:16:14.074Z,18.20
2023-05-10T04:18:41.626Z,18.20
2023-05-10T04:21:17.837Z,18.20
2023-05-10T04:23:45.426Z,18.20
2023-05-10T04:26:15.309Z,18.20
2023-05-10T04:28:42.584Z,18.20
2023-05-10T04:31:11.050Z,18.20
2023-05-10T04:33:38.609Z,18.20
2023-05-10T04:36:06.390Z,18.20
2023-05-10T04:38:36.696Z,18.20
2023-05-10T04:41:08.454Z,18.20
2023-05-10T04:43:39.317Z,18.20
2023-05-10T04:46:07.095Z,18.30
2023-05-10T04:48:34.778Z,18.20
2023-05-10T04:51:05.041Z,18.30
2023-05-10T04:53:35.001Z,18.20
2023-05-10T04:56:02.314Z,18.20
2023-05-10T04:58:29.596Z,18.30
2023-05-10T05:00:56.926Z,18.30
2023-05-10T05:03:24.316Z,18.30
2023-05-10T05:05:51.639Z,18.30
2023-05-10T05:08:18.860Z,18.30
2023-05-10T05:10:51.186Z,18.30
2023-05-10T05:13:23.231Z,18.30
2023-05-10T05:15:50.742Z,18.30
2023-05-10T05:18:18.331Z,18.40
2023-05-10T05:20:45.622Z,18.40
2023-05-10T05:23:15.420Z,18.40
2023-05-10T05:25:45.025Z,18.40
2023-05-10T05:28:12.306Z,18.40
2023-05-10T05:30:39.578Z,18.40
2023-05-10T05:33:09.009Z,18.40
2023-05-10T05:35:36.315Z,18.40
2023-05-10T05:38:03.595Z,18.40
2023-05-10T05:40:30.909Z,18.50
2023-05-10T05:42:58.212Z,18.40
2023-05-10T05:45:25.456Z,18.50
2023-05-10T05:47:55.179Z,18.50
2023-05-10T05:50:25.034Z,18.50
2023-05-10T05:52:52.345Z,18.50
2023-05-10T05:55:19.763Z,18.50
2023-05-10T05:57:47.045Z,18.50
2023-05-10T06:00:17.169Z,18.50
2023-05-10T06:02:46.707Z,18.50
2023-05-10T06:05:15.223Z,18.50
2023-05-10T06:07:45.403Z,18.40
2023-05-10T06:10:15.153Z,18.40
2023-05-10T06:12:44.808Z,18.40
2023-05-10T06:15:12.306Z,18.40
2023-05-10T06:17:39.888Z,18.40
2023-05-10T06:20:08.008Z,18.40
2023-05-10T06:22:35.485Z,18.40
2023-05-10T06:25:05.393Z,18.30
2023-05-10T06:27:32.634Z,18.30
2023-05-10T06:30:11.882Z,18.30
2023-05-10T06:32:40.696Z,18.30
2023-05-10T06:35:08.894Z,18.30
2023-05-10T06:37:36.194Z,18.30
2023-05-10T06:40:03.640Z,18.30
2023-05-10T06:42:30.895Z,18.30
2023-05-10T06:45:00.640Z,18.30
2023-05-10T06:47:28.019Z,18.30
2023-05-10T06:49:55.799Z,18.40
2023-05-10T06:52:23.118Z,18.30
2023-05-10T06:54:52.462Z,18.30
2023-05-10T06:57:31.177Z,18.40
2023-05-10T06:59:59.806Z,18.30
2023-05-10T07:02:30.844Z,18.40
2023-05-10T07:05:15.415Z,18.40
2023-05-10T07:07:43.327Z,18.40
2023-05-10T07:10:10.925Z,18.40
2023-05-10T07:12:40.728Z,18.50
2023-05-10T07:15:08.920Z,18.40
2023-05-10T07:17:38.852Z,18.50
2023-05-10T07:20:06.883Z,18.40
2023-05-10T07:22:34.135Z,18.40
2023-05-10T07:25:01.356Z,18.40
2023-05-10T07:27:34.161Z,18.40
2023-05-10T07:30:03.580Z,18.40
2023-05-10T07:32:31.702Z,18.40
2023-05-10T07:35:01.442Z,18.40
2023-05-10T07:37:28.707Z,18.40
2023-05-10T07:40:00.667Z,18.40
2023-05-10T07:42:27.946Z,18.40
2023-05-10T07:44:55.221Z,18.40
2023-05-10T07:47:24.976Z,18.40
2023-05-10T07:49:52.297Z,18.50
2023-05-10T07:52:22.842Z,18.50
2023-05-10T07:54:50.353Z,18.50
2023-05-10T07:57:21.348Z,18.50
2023-05-10T07:59:53.399Z,18.50
2023-05-10T08:02:20.685Z,18.50
2023-05-10T08:04:47.914Z,18.50
2023-05-10T08:07:15.219Z,18.60
2023-05-10T08:09:42.548Z,18.50
2023-05-10T08:12:12.282Z,18.60
2023-05-10T08:14:44.183Z,18.60
2023-05-10T08:17:11.605Z,18.60
2023-05-10T08:19:38.853Z,18.60
2023-05-10T08:22:06.473Z,18.60
2023-05-10T08:24:35.764Z,18.70
2023-05-10T08:27:03.200Z,18.70
2023-05-10T08:29:35.601Z,18.70
2023-05-10T08:32:12.649Z,18.70
2023-05-10T08:34:39.949Z,18.70
2023-05-10T08:37:09.779Z,18.70
2023-05-10T08:39:37.302Z,18.70
2023-05-10T08:42:09.292Z,18.70
2023-05-10T08:44:37.832Z,18.70
2023-05-10T08:47:09.938Z,18.70
2023-05-10T08:49:41.138Z,18.60
2023-05-10T08:52:09.151Z,18.60
2023-05-10T08:54:37.511Z,18.60
2023-05-10T08:57:05.040Z,18.60
2023-05-10T08:59:32.986Z,18.60
2023-05-10T09:02:01.061Z,18.60
2023-05-10T09:04:31.826Z,18.60
2023-05-10T09:06:59.272Z,18.60
2023-05-10T09:09:26.947Z,18.60
2023-05-10T09:11:55.305Z,18.60
2023-05-10T09:14:25.573Z,18.60
2023-05-10T09:16:56.173Z,18.60
2023-05-10T09:19:25.769Z,18.50
2023-05-10T09:21:53.061Z,18.50
2023-05-10T09:24:20.453Z,18.50
2023-05-10T09:26:52.837Z,18.50
2023-05-10T09:29:22.310Z,18.50
2023-05-10T09:31:52.511Z,18.50
2023-05-10T09:34:21.944Z,18.50
2023-05-10T09:37:02.553Z,18.50
2023-05-10T09:39:37.699Z,18.50
2023-05-10T09:42:14.191Z,18.50
2023-05-10T09:44:43.515Z,18.50
2023-05-10T09:47:10.782Z,18.50
2023-05-10T09:49:38.036Z,18.50
2023-05-10T09:52:07.319Z,18.50
2023-05-10T09:54:37.291Z,18.50
2023-05-10T09:57:19.353Z,18.50
2023-05-10T09:59:46.662Z,18.50
2023-05-10T10:02:14.380Z,18.50
2023-05-10T10:04:44.378Z,18.60
2023-05-10T10:07:11.715Z,18.60
2023-05-10T10:09:40.071Z,18.60
2023-05-10T10:12:07.471Z,18.60
2023-05-10T10:14:37.027Z,18.60
2023-05-10T10:17:08.347Z,18.70
2023-05-10T10:19:37.259Z,18.70
2023-05-10T10:22:07.249Z,18.70
2023-05-10T10:24:37.823Z,18.70
2023-05-10T10:27:34.669Z,18.70
2023-05-10T10:30:31.245Z,18.70
2023-05-10T10:33:16.581Z,18.70
2023-05-10T10:35:59.449Z,18.80
2023-05-10T10:38:26.807Z,18.80
2023-05-10T10:41:08.914Z,18.70
2023-05-10T10:43:38.532Z,18.70
2023-05-10T10:46:18.557Z,18.70
2023-05-10T10:49:09.918Z,18.70
2023-05-10T10:51:40.702Z,18.70
2023-05-10T10:54:11.567Z,18.80
2023-05-10T10:56:39.210Z,18.80
2023-05-10T10:59:06.448Z,18.70
2023-05-10T11:01:38.166Z,18.80
2023-05-10T11:04:05.509Z,18.80
2023-05-10T11:06:34.669Z,18.80
2023-05-10T11:09:28.091Z,18.80
2023-05-10T11:12:01.399Z,18.80
2023-05-10T11:14:29.686Z,18.90
2023-05-10T11:17:02.367Z,18.90
2023-05-10T11:19:32.260Z,18.90
2023-05-10T11:22:22.089Z,18.90
2023-05-10T11:24:59.597Z,19.00
2023-05-10T11:27:27.011Z,19.00
2023-05-10T11:29:54.286Z,19.00
2023-05-10T11:32:21.828Z,19.00
2023-05-10T11:34:54.713Z,19.00
2023-05-10T11:37:22.040Z,19.10
2023-05-10T11:39:49.384Z,19.10
2023-05-10T11:42:21.648Z,19.10
2023-05-10T11:44:52.135Z,19.10
2023-05-10T11:47:19.471Z,19.10
2023-05-10T11:49:47.798Z,19.10
2023-05-10T11:52:22.532Z,19.10
2023-05-10T11:54:55.864Z,19.10
2023-05-10T11:57:28.990Z,19.10
2023-05-10T11:59:58.212Z,19.10
2023-05-10T12:02:28.847Z,19.10
2023-05-10T12:04:57.288Z,19.10
2023-05-10T12:07:24.804Z,19.10
2023-05-10T12:10:09.374Z,19.10
2023-05-10T12:12:49.094Z,19.10
2023-05-10T12:15:20.875Z,19.10
2023-05-10T12:17:49.051Z,19.20
2023-05-10T12:20:21.147Z,19.20
2023-05-10T12:22:55.237Z,19.20
2023-05-10T12:25:24.787Z,19.20
2023-05-10T12:27:52.764Z,19.20
2023-05-10T12:30:28.272Z,19.30
2023-05-10T12:33:01.789Z,19.30
2023-05-10T12:35:32.514Z,19.30
2023-05-10T12:38:00.083Z,19.30
2023-05-10T12:40:27.426Z,19.30
2023-05-10T12:42:57.110Z,19.30
2023-05-10T12:45:26.634Z,19.30
2023-05-10T12:47:56.461Z,19.30
2023-05-10T12:50:25.328Z,19.30
2023-05-10T12:52:52.581Z,19.30
2023-05-10T12:55:19.956Z,19.30
2023-05-10T12:57:47.266Z,19.30
2023-05-10T13:00:15.429Z,19.30
2023-05-10T13:02:42.951Z,19.30
2023-05-10T13:05:10.540Z,19.30
2023-05-10T13:07:40.533Z,19.40
2023-05-10T13:10:08.320Z,19.40
2023-05-10T13:12:37.826Z,19.40
2023-05-10T13:15:05.684Z,19.40
2023-05-10T13:17:34.233Z,19.40
2023-05-10T13:20:01.804Z,19.40
2023-05-10T13:22:39.832Z,19.40
2023-05-10T13:25:11.101Z,19.40
2023-05-10T13:27:40.184Z,19.40
2023-05-10T13:30:12.267Z,19.40
2023-05-10T13:32:41.777Z,19.40
2023-05-10T13:35:09.422Z,19.50
2023-05-10T13:37:38.222Z,19.40
2023-05-10T13:40:06.255Z,19.50
2023-05-10T13:42:35.988Z,19.50
2023-05-10T13:45:08.553Z,19.50
2023-05-10T13:47:36.277Z,19.50
2023-05-10T13:50:06.285Z,19.60
2023-05-10T13:52:33.546Z,19.60
2023-05-10T13:55:01.061Z,19.60
2023-05-10T13:57:31.314Z,19.60
2023-05-10T14:00:00.860Z,19.60
2023-05-10T14:02:28.651Z,19.70
2023-05-10T14:04:58.334Z,19.70
2023-05-10T14:07:25.611Z,19.70
2023-05-10T14:09:52.912Z,19.70
2023-05-10T14:12:20.136Z,19.70
2023-05-10T14:14:47.349Z,19.70
2023-05-10T14:17:17.120Z,19.70
2023-05-10T14:19:46.869Z,19.70
2023-05-10T14:22:14.221Z,19.80
2023-05-10T14:24:47.638Z,19.70
2023-05-10T14:27:15.190Z,19.80
2023-05-10T14:29:42.703Z,19.80
2023-05-10T14:32:10.122Z,19.80
2023-05-10T14:34:37.494Z,19.80
2023-05-10T14:37:05.413Z,19.80
2023-05-10T14:39:32.835Z,19.80
2023-05-10T14:42:03.683Z,19.80
2023-05-10T14:44:31.524Z,19.90
2023-05-10T14:47:03.434Z,19.90
2023-05-10T14:49:30.731Z,19.90
2023-05-10T14:51:58.030Z,19.90
2023-05-10T14:54:25.317Z,19.90
2023-05-10T14:56:52.673Z,19.90
2023-05-10T14:59:19.905Z,19.90
2023-05-10T15:01:47.856Z,19.90
2023-05-10T15:04:17.450Z,19.90
2023-05-10T15:06:50.025Z,19.90
2023-05-10T15:09:17.456Z,19.90
2023-05-10T15:11:47.068Z,20.00
2023-05-10T15:14:14.293Z,20.00
2023-05-10T15:16:41.654Z,20.00
2023-05-10T15:19:08.979Z,20.00
2023-05-10T15:21:40.069Z,20.00
2023-05-10T15:24:07.539Z,20.00
2023-05-10T15:26:35.182Z,20.00
2023-05-10T15:29:05.023Z,20.00
2023-05-10T15:31:36.131Z,20.00
2023-05-10T15:34:03.615Z,20.00
2023-05-10T15:36:32.775Z,20.00
2023-05-10T15:39:02.456Z,20.00
2023-05-10T15:41:32.427Z,20.00
2023-05-10T15:44:02.860Z,20.00
2023-05-10T15:46:30.687Z,20.00
2023-05-10T15:49:01.088Z,20.00
2023-05-10T15:51:28.434Z,20.00
2023-05-10T15:54:06.612Z,20.00
2023-05-10T15:56:35.804Z,20.00
2023-05-10T15:59:03.910Z,20.00
2023-05-10T16:01:34.668Z,20.00
2023-05-10T16:04:06.896Z,20.00
2023-05-10T16:06:36.420Z,20.10
2023-05-10T16:09:03.878Z,20.00
2023-05-10T16:11:31.426Z,20.10
2023-05-10T16:13:58.706Z,20.00
2023-05-10T16:16:26.017Z,20.00
2023-05-10T16:18:55.904Z,20.00
2023-05-10T16:21:26.081Z,20.00
2023-05-10T16:23:53.329Z,20.00
2023-05-10T16:26:21.762Z,20.00
2023-05-10T16:28:49.259Z,20.00
2023-05-10T16:31:20.088Z,20.00
2023-05-10T16:33:47.406Z,20.10
2023-05-10T16:36:14.705Z,20.10
2023-05-10T16:38:41.974Z,20.10
2023-05-10T16:41:09.188Z,20.10
2023-05-10T16:43:36.789Z,20.10
2023-05-10T16:46:10.580Z,20.10
2023-05-10T16:48:38.158Z,20.00
2023-05-10T16:51:08.109Z,20.10
2023-05-10T16:53:36.300Z,20.10
2023-05-10T16:56:03.591Z,20.10
2023-05-10T16:58:30.846Z,20.10
2023-05-10T17:00:58.127Z,20.10
2023-05-10T17:03:25.671Z,20.00
2023-05-10T17:05:55.602Z,20.10
2023-05-10T17:08:25.322Z,20.10
2023-05-10T17:10:52.556Z,20.10
2023-05-10T17:13:22.275Z,20.10
2023-05-10T17:15:49.690Z,20.10
2023-05-10T17:18:18.132Z,20.10
2023-05-10T17:20:45.492Z,20.10
2023-05-10T17:23:13.018Z,20.10
2023-05-10T17:25:42.052Z,20.00
2023-05-10T17:28:12.289Z,20.10
2023-05-10T17:30:41.969Z,20.10
2023-05-10T17:33:09.246Z,20.00
2023-05-10T17:35:38.710Z,20.00
2023-05-10T17:38:05.965Z,20.10
2023-05-10T17:40:38.043Z,20.10
2023-05-10T17:43:05.379Z,20.00
2023-05-10T17:45:32.627Z,20.10
2023-05-10T17:47:59.927Z,20.10
2023-05-10T17:50:27.266Z,20.00
2023-05-10T17:52:54.511Z,20.00
2023-05-10T17:55:22.330Z,20.00
2023-05-10T17:57:52.174Z,20.00
2023-05-10T18:00:19.605Z,20.00
2023-05-10T18:02:46.876Z,20.00
2023-05-10T18:05:16.957Z,20.00
2023-05-10T18:07:46.954Z,20.00
2023-05-10T18:10:16.699Z,20.00
2023-05-10T18:12:44.396Z,20.00
2023-05-10T18:15:11.765Z,20.00
2023-05-10T18:17:39.093Z,20.00
2023-05-10T18:20:09.670Z,20.00
2023-05-10T18:22:39.440Z,19.90
2023-05-10T18:25:07.240Z,19.90
2023-05-10T18:27:34.929Z,19.90
2023-05-10T18:30:02.413Z,19.80
2023-05-10T18:32:29.901Z,19.70
2023-05-10T18:34:57.725Z,19.70
2023-05-10T18:37:27.491Z,19.60
2023-05-10T18:39:57.728Z,19.60
2023-05-10T18:42:27.761Z,19.60
2023-05-10T18:44:57.274Z,19.50
2023-05-10T18:47:26.684Z,19.50
2023-05-10T18:49:54.020Z,19.50
2023-05-10T18:52:21.458Z,19.40
2023-05-10T18:54:49.545Z,19.40
2023-05-10T18:57:17.135Z,19.30
2023-05-10T18:59:44.793Z,19.30
2023-05-10T19:02:12.258Z,19.30
2023-05-10T19:04:39.810Z,19.30
2023-05-10T19:07:12.013Z,19.30
2023-05-10T19:09:41.818Z,19.30
2023-05-10T19:12:09.055Z,19.30
2023-05-10T19:14:41.024Z,19.20
2023-05-10T19:17:08.805Z,19.20
2023-05-10T19:19:38.959Z,19.20
2023-05-10T19:22:08.697Z,19.20
2023-05-10T19:24:35.988Z,19.20
2023-05-10T19:27:05.738Z,19.20
2023-05-10T19:29:35.520Z,19.20
2023-05-10T19:32:02.856Z,19.20
2023-05-10T19:34:30.164Z,19.20
2023-05-10T19:36:59.781Z,19.20
2023-05-10T19:39:30.852Z,19.20
2023-05-10T19:41:59.629Z,19.20
2023-05-10T19:44:27.005Z,19.20
2023-05-10T19:46:54.358Z,19.20
2023-05-10T19:49:24.097Z,19.20
2023-05-10T19:51:53.622Z,19.20
2023-05-10T19:54:20.914Z,19.20
2023-05-10T19:56:50.393Z,19.20
2023-05-10T19:59:20.077Z,19.20
2023-05-10T20:01:47.306Z,19.20
2023-05-10T20:04:14.743Z,19.20
2023-05-10T20:06:42.010Z,19.20
2023-05-10T20:09:12.094Z,19.20
2023-05-10T20:11:39.451Z,19.10
2023-05-10T20:14:09.775Z,19.10
2023-05-10T20:16:37.075Z,19.10
2023-05-10T20:19:04.667Z,19.10
2023-05-10T20:21:34.213Z,19.10
2023-05-10T20:24:04.051Z,19.10
2023-05-10T20:26:31.373Z,19.10
2023-05-10T20:28:58.583Z,19.10
2023-05-10T20:31:30.473Z,19.10
2023-05-10T20:34:00.028Z,19.10
2023-05-10T20:36:27.252Z,19.10
2023-05-10T20:38:54.526Z,19.10
2023-05-10T20:41:21.803Z,19.10
2023-05-10T20:43:49.087Z,19.10
2023-05-10T20:46:18.779Z,19.10
2023-05-10T20:48:48.278Z,19.10
2023-05-10T20:51:15.689Z,19.10
2023-05-10T20:53:45.817Z,19.10
2023-05-10T20:56:13.085Z,19.10
2023-05-10T20:58:42.737Z,19.10
2023-05-10T21:01:12.347Z,19.10
2023-05-10T21:03:39.622Z,19.10
2023-05-10T21:06:09.126Z,19.10
2023-05-10T21:08:38.732Z,19.10
2023-05-10T21:11:05.966Z,19.10
2023-05-10T21:13:35.730Z,19.10
2023-05-10T21:16:03.487Z,19.10
2023-05-10T21:18:30.851Z,19.10
2023-05-10T21:21:01.084Z,19.10
2023-05-10T21:23:32.418Z,19.10
2023-05-10T21:26:03.189Z,19.10
2023-05-10T21:28:35.406Z,19.10
2023-05-10T21:31:04.975Z,19.10
2023-05-10T21:33:32.185Z,19.10
2023-05-10T21:35:59.454Z,19.10
2023-05-10T21:38:28.278Z,19.10
2023-05-10T21:40:55.834Z,19.10
2023-05-10T21:43:25.490Z,19.10
2023-05-10T21:45:52.977Z,19.00
2023-05-10T21:48:20.672Z,19.00
2023-05-10T21:50:48.168Z,19.00
2023-05-10T21:53:17.833Z,19.00
2023-05-10T21:55:45.140Z,19.00
2023-05-10T21:58:12.459Z,19.00
2023-05-10T22:00:42.296Z,19.00
2023-05-10T22:03:11.830Z,18.90
2023-05-10T22:05:41.658Z,18.90
2023-05-10T22:08:11.106Z,18.90
2023-05-10T22:10:38.349Z,18.90
2023-05-10T22:13:08.090Z,18.90
2023-05-10T22:15:36.670Z,18.90
2023-05-10T22:18:04.357Z,18.90
2023-05-10T22:20:34.041Z,18.90
2023-05-10T22:23:01.479Z,18.80
2023-05-10T22:25:28.792Z,18.80
2023-05-10T22:27:58.497Z,18.80
2023-05-10T22:30:28.213Z,18.80
2023-05-10T22:32:55.473Z,18.80
2023-05-10T22:35:22.770Z,18.80
2023-05-10T22:37:50.014Z,18.70
2023-05-10T22:40:17.722Z,18.70
2023-05-10T22:42:45.207Z,18.70
2023-05-10T22:45:14.949Z,18.70
2023-05-10T22:47:45.088Z,18.70
2023-05-10T22:50:13.993Z,18.60
2023-05-10T22:52:41.350Z,18.60
2023-05-10T22:55:09.001Z,18.60
2023-05-10T22:57:38.724Z,18.60
2023-05-10T23:00:07.012Z,18.50
2023-05-10T23:02:35.030Z,18.50
2023-05-10T23:05:02.436Z,18.50
2023-05-10T23:07:29.811Z,18.40
2023-05-10T23:09:59.577Z,18.40
2023-05-10T23:12:26.836Z,18.40
2023-05-10T23:14:56.696Z,18.30
2023-05-10T23:17:26.519Z,18.30
2023-05-10T23:19:56.190Z,18.30
2023-05-10T23:22:23.474Z,18.20
2023-05-10T23:24:55.066Z,18.20
2023-05-10T23:27:24.809Z,18.20
2023-05-10T23:29:59.031Z,18.20
2023-05-10T23:32:28.897Z,18.20
2023-05-10T23:34:58.545Z,18.20
2023-05-10T23:37:28.399Z,18.20
2023-05-10T23:39:57.788Z,18.10
2023-05-10T23:42:25.053Z,18.10
2023-05-10T23:44:52.695Z,18.10
2023-05-10T23:47:19.985Z,18.10
2023-05-10T23:49:47.220Z,18.10
2023-05-10T23:52:14.559Z,18.00
2023-05-10T23:54:42.619Z,18.00
2023-05-10T23:57:13.700Z,18.00
2023-05-10T23:59:41.155Z,17.90
